Time;durP1;ratioP1;P1;durP2;ratioP2;P2;SDS_P1;SDS_P2;PMS_P1;PMS_P2;Temp;Humidity;BMP_temperature;BMP_pressure;BME280_temperature;BME280_humidity;BME280_pressure;Samples;Min_cycle;Max_cycle;Signal;HPM_P1;HPM_P2
2022/12/09 00:01:32;;;;;;;;;;;-2.70;99.90;;;;;;4975975;28;20016;-90
2022/12/09 00:03:58;;;;;;;;;;;-2.70;99.90;;;;;;4978726;28;19925;-92
2022/12/09 00:06:25;;;;;;;;;;;-2.70;99.90;;;;;;4963955;28;19926;-90
2022/12/09 00:08:51;;;;;;;;;;;-2.70;99.90;;;;;;4991479;28;20001;-90
2022/12/09 00:11:17;;;;;;;;;;;-2.70;99.90;;;;;;4987453;28;19932;-90
2022/12/09 00:13:46;;;;;;;;;;;-2.70;99.90;;;;;;4985489;28;19945;-89
2022/12/09 00:16:12;;;;;;;;;;;-1.70;99.90;;;;;;4976777;28;19921;-90
2022/12/09 00:18:38;;;;;;;;;;;0.30;99.90;;;;;;4994307;28;19925;-91
2022/12/09 00:21:24;;;;;;;;;;;-2.60;99.90;;;;;;4969817;28;19933;-91
2022/12/09 00:23:50;;;;;;;;;;;-2.70;99.90;;;;;;4989131;28;19965;-91
2022/12/09 00:26:17;;;;;;;;;;;-2.60;99.90;;;;;;4988581;28;20289;-91
2022/12/09 00:28:42;;;;;;;;;;;-2.70;99.90;;;;;;4986505;28;19925;-90
2022/12/09 00:31:10;;;;;;;;;;;-2.60;99.90;;;;;;4985234;28;19949;-91
2022/12/09 00:33:36;;;;;;;;;;;-2.60;99.90;;;;;;4993595;28;20370;-90
2022/12/09 00:36:05;;;;;;;;;;;-2.60;99.90;;;;;;4998752;28;19932;-90
2022/12/09 00:38:31;;;;;;;;;;;-2.50;99.90;;;;;;4975780;28;19930;-91
2022/12/09 00:40:56;;;;;;;;;;;-2.50;99.90;;;;;;4970656;28;19933;-91
2022/12/09 00:43:22;;;;;;;;;;;-2.50;99.90;;;;;;5003492;28;19929;-91
2022/12/09 00:45:48;;;;;;;;;;;-2.40;99.90;;;;;;4993322;28;19926;-91
2022/12/09 00:48:13;;;;;;;;;;;-2.50;99.90;;;;;;4979093;28;19972;-91
2022/12/09 00:50:39;;;;;;;;;;;0.70;99.90;;;;;;5002189;28;20450;-91
2022/12/09 00:53:04;;;;;;;;;;;-2.50;99.90;;;;;;4971397;28;19937;-91
2022/12/09 00:55:30;;;;;;;;;;;-2.50;99.90;;;;;;4985634;28;19941;-91
2022/12/09 00:57:58;;;;;;;;;;;-1.90;99.90;;;;;;4986647;28;19926;-91
2022/12/09 01:00:24;;;;;;;;;;;-2.50;99.90;;;;;;4951559;28;19934;-91
2022/12/09 01:02:50;;;;;;;;;;;-2.40;99.90;;;;;;4985584;28;19934;-92
2022/12/09 01:05:15;;;;;;;;;;;0.40;99.90;;;;;;4985863;28;19926;-91
2022/12/09 01:07:41;;;;;;;;;;;-2.10;99.90;;;;;;4985375;28;19930;-91
2022/12/09 01:10:07;;;;;;;;;;;-0.80;99.90;;;;;;4993265;28;19933;-91
2022/12/09 01:12:33;;;;;;;;;;;-2.30;99.90;;;;;;4980314;28;19965;-91
2022/12/09 01:14:58;;;;;;;;;;;-2.20;99.90;;;;;;4998706;28;19926;-93
2022/12/09 01:17:24;;;;;;;;;;;-2.20;99.90;;;;;;5003545;28;19931;-91
2022/12/09 01:19:50;;;;;;;;;;;0.30;99.90;;;;;;4978512;28;20297;-92
2022/12/09 01:22:15;;;;;;;;;;;0.30;99.90;;;;;;4992848;28;20385;-91
2022/12/09 01:24:41;;;;;;;;;;;-2.00;99.90;;;;;;4958268;28;19976;-91
2022/12/09 01:27:06;;;;;;;;;;;-1.40;99.90;;;;;;4999873;28;19936;-92
2022/12/09 01:29:32;;;;;;;;;;;-1.10;99.90;;;;;;5002458;28;19932;-92
2022/12/09 01:31:58;;;;;;;;;;;0.20;99.90;;;;;;4976812;28;19932;-91
2022/12/09 01:34:23;;;;;;;;;;;-2.00;99.90;;;;;;4988665;28;19933;-92
2022/12/09 01:36:49;;;;;;;;;;;-1.90;99.90;;;;;;5003282;28;19926;-91
2022/12/09 01:39:15;;;;;;;;;;;-1.80;99.90;;;;;;4986139;28;20361;-91
2022/12/09 01:41:41;;;;;;;;;;;-1.90;99.90;;;;;;4988278;28;19929;-91
2022/12/09 01:44:06;;;;;;;;;;;-1.90;99.90;;;;;;4998498;28;20012;-90
2022/12/09 01:46:32;;;;;;;;;;;-1.90;99.90;;;;;;4995917;28;19968;-91
2022/12/09 01:48:58;;;;;;;;;;;-0.80;99.90;;;;;;4988280;28;19949;-92
2022/12/09 01:51:24;;;;;;;;;;;-1.90;99.90;;;;;;4982658;28;19926;-92
2022/12/09 01:53:49;;;;;;;;;;;-1.90;99.90;;;;;;5007858;28;19977;-91
2022/12/09 01:56:23;;;;;;;;;;;-1.90;99.90;;;;;;4968443;28;19944;-90
2022/12/09 01:58:50;;;;;;;;;;;-1.90;99.90;;;;;;4978184;28;20321;-91
2022/12/09 02:01:16;;;;;;;;;;;-1.30;99.90;;;;;;4992018;28;19969;-92
2022/12/09 02:03:42;;;;;;;;;;;-2.00;99.90;;;;;;4977567;28;19933;-91
2022/12/09 02:06:08;;;;;;;;;;;-1.20;99.90;;;;;;4994818;28;19968;-91
2022/12/09 02:08:33;;;;;;;;;;;-2.00;99.90;;;;;;4990689;28;19926;-91
2022/12/09 02:10:59;;;;;;;;;;;-2.00;99.90;;;;;;4976340;28;19926;-91
2022/12/09 02:13:37;;;;;;;;;;;-2.10;99.90;;;;;;4996460;28;19949;-91
2022/12/09 02:16:07;;;;;;;;;;;-2.10;99.90;;;;;;4990262;28;19929;-91
2022/12/09 02:18:42;;;;;;;;;;;-2.10;99.90;;;;;;4974711;28;19925;-90
2022/12/09 02:21:14;;;;;;;;;;;-2.10;99.90;;;;;;4986709;28;19926;-92
2022/12/09 02:23:52;;;;;;;;;;;-2.10;99.90;;;;;;4983358;28;20392;-91
2022/12/09 02:26:27;;;;;;;;;;;-2.10;99.90;;;;;;4997592;28;20314;-91
2022/12/09 02:29:25;;;;;;;;;;;-2.10;99.90;;;;;;4997010;28;20412;-91
2022/12/09 02:31:51;;;;;;;;;;;-2.10;99.90;;;;;;4974681;28;19936;-90
2022/12/09 02:34:17;;;;;;;;;;;-2.20;99.90;;;;;;4972199;28;19969;-92
2022/12/09 02:36:49;;;;;;;;;;;-2.20;99.90;;;;;;4988949;28;19930;-91
2022/12/09 02:39:15;;;;;;;;;;;-2.30;99.90;;;;;;4972241;28;19933;-91
2022/12/09 02:41:42;;;;;;;;;;;-2.30;99.90;;;;;;4964966;28;20403;-91
2022/12/09 02:44:10;;;;;;;;;;;-2.20;99.90;;;;;;4990512;28;20429;-91
2022/12/09 02:46:36;;;;;;;;;;;-2.30;99.90;;;;;;5004591;28;19949;-92
2022/12/09 02:49:02;;;;;;;;;;;-2.30;99.90;;;;;;4991742;28;19926;-91
2022/12/09 02:51:29;;;;;;;;;;;-2.30;99.90;;;;;;4972309;28;19925;-91
2022/12/09 02:53:57;;;;;;;;;;;-2.30;99.90;;;;;;5003762;28;19993;-92
2022/12/09 02:56:23;;;;;;;;;;;-2.30;99.90;;;;;;5004114;28;20024;-92
2022/12/09 02:58:49;;;;;;;;;;;-2.30;99.90;;;;;;4997732;28;19926;-92
2022/12/09 03:01:36;;;;;;;;;;;-2.40;99.90;;;;;;4990991;28;20396;-92
2022/12/09 03:04:03;;;;;;;;;;;-2.30;99.90;;;;;;4985682;28;19925;-92
2022/12/09 03:06:42;;;;;;;;;;;-2.30;99.90;;;;;;4978722;28;20335;-91
2022/12/09 03:09:14;;;;;;;;;;;-2.30;99.90;;;;;;4985057;28;19959;-92
2022/12/09 03:11:40;;;;;;;;;;;-2.40;99.90;;;;;;4995747;28;19926;-92
2022/12/09 03:14:15;;;;;;;;;;;-2.40;99.90;;;;;;4999050;28;19967;-92
2022/12/09 03:16:50;;;;;;;;;;;-2.40;99.90;;;;;;4993783;28;19993;-93
2022/12/09 03:19:35;;;;;;;;;;;-2.40;99.90;;;;;;5009043;28;19926;-92
2022/12/09 03:22:06;;;;;;;;;;;-2.40;99.90;;;;;;4971471;28;20028;-91
2022/12/09 03:24:34;;;;;;;;;;;-2.40;99.90;;;;;;4991922;28;19992;-92
2022/12/09 03:27:05;;;;;;;;;;;-2.50;99.90;;;;;;4988759;28;19926;-91
2022/12/09 03:29:32;;;;;;;;;;;-2.50;99.90;;;;;;4993650;28;19931;-91
2022/12/09 03:31:58;;;;;;;;;;;-2.50;99.90;;;;;;4991946;28;19960;-92
2022/12/09 03:34:27;;;;;;;;;;;-2.50;99.90;;;;;;4991275;28;19941;-91
2022/12/09 03:36:52;;;;;;;;;;;-2.50;99.90;;;;;;4978134;28;19929;-91
2022/12/09 03:39:20;;;;;;;;;;;-2.60;99.90;;;;;;4980508;28;19926;-91
2022/12/09 03:41:51;;;;;;;;;;;-0.70;99.90;;;;;;4996912;28;19980;-91
2022/12/09 03:44:32;;;;;;;;;;;-2.60;99.90;;;;;;4997816;28;19948;-92
2022/12/09 03:46:58;;;;;;;;;;;-2.60;99.90;;;;;;4983572;28;19984;-91
2022/12/09 03:49:24;;;;;;;;;;;-2.60;99.90;;;;;;4957714;28;19926;-91
2022/12/09 03:51:55;;;;;;;;;;;-2.70;99.90;;;;;;4997875;28;20428;-91
2022/12/09 03:54:22;;;;;;;;;;;-2.60;99.90;;;;;;5001849;28;20143;-90
2022/12/09 03:56:51;;;;;;;;;;;-2.60;99.90;;;;;;4988790;28;19933;-91
2022/12/09 03:59:17;;;;;;;;;;;-2.70;99.90;;;;;;4989578;28;19926;-90
2022/12/09 04:01:44;;;;;;;;;;;-2.60;99.90;;;;;;4977218;28;19930;-91
2022/12/09 04:04:10;;;;;;;;;;;-2.60;99.90;;;;;;4979159;28;19989;-91
2022/12/09 04:06:35;;;;;;;;;;;-2.60;99.90;;;;;;4974285;28;20393;-90
2022/12/09 04:09:02;;;;;;;;;;;-0.70;99.90;;;;;;4988006;28;19936;-91
2022/12/09 04:11:28;;;;;;;;;;;-2.60;99.90;;;;;;4987189;28;19933;-91
2022/12/09 04:13:53;;;;;;;;;;;-2.60;99.90;;;;;;4973194;28;19925;-90
2022/12/09 04:16:19;;;;;;;;;;;-1.70;99.90;;;;;;4991862;28;19940;-93
2022/12/09 04:18:44;;;;;;;;;;;-2.60;99.90;;;;;;4995041;28;19965;-90
2022/12/09 04:21:11;;;;;;;;;;;-2.60;99.90;;;;;;4971907;28;19940;-91
2022/12/09 04:23:37;;;;;;;;;;;-2.60;99.90;;;;;;4994096;28;19926;-92
2022/12/09 04:26:03;;;;;;;;;;;-2.60;99.90;;;;;;4991177;28;20590;-91
2022/12/09 04:28:29;;;;;;;;;;;-2.60;99.90;;;;;;4974533;28;19940;-92
2022/12/09 04:30:54;;;;;;;;;;;-2.70;99.90;;;;;;4980910;28;19929;-91
2022/12/09 04:33:20;;;;;;;;;;;-2.70;99.90;;;;;;4977696;28;20427;-91
2022/12/09 04:35:45;;;;;;;;;;;-2.70;99.90;;;;;;4979713;28;19948;-91
2022/12/09 04:38:11;;;;;;;;;;;-2.70;99.90;;;;;;4988714;28;20304;-91
2022/12/09 04:40:37;;;;;;;;;;;-2.70;99.90;;;;;;5000631;28;19925;-91
2022/12/09 04:43:03;;;;;;;;;;;-2.70;99.90;;;;;;4983474;28;19936;-91
2022/12/09 04:45:28;;;;;;;;;;;-2.70;99.90;;;;;;4979878;28;19968;-90
2022/12/09 04:47:54;;;;;;;;;;;-2.70;99.90;;;;;;4976882;28;19972;-91
2022/12/09 04:50:20;;;;;;;;;;;-2.70;99.90;;;;;;4988484;28;19932;-91
2022/12/09 04:52:45;;;;;;;;;;;-2.80;99.90;;;;;;4976511;28;19933;-91
2022/12/09 04:55:13;;;;;;;;;;;-2.70;99.90;;;;;;4984452;28;19922;-91
2022/12/09 04:57:38;;;;;;;;;;;-1.40;99.90;;;;;;4998629;28;19910;-92
2022/12/09 05:00:05;;;;;;;;;;;-2.80;99.90;;;;;;4990621;28;19926;-92
2022/12/09 05:02:30;;;;;;;;;;;-2.80;99.90;;;;;;4991699;28;19952;-92
2022/12/09 05:04:56;;;;;;;;;;;-2.80;99.90;;;;;;4964997;28;19926;-91
2022/12/09 05:07:22;;;;;;;;;;;-2.60;99.90;;;;;;4988080;28;19952;-92
2022/12/09 05:09:48;;;;;;;;;;;-2.90;99.90;;;;;;4976413;28;19926;-91
2022/12/09 05:12:13;;;;;;;;;;;-2.90;99.90;;;;;;4987760;28;19942;-92
2022/12/09 05:14:39;;;;;;;;;;;-2.90;99.90;;;;;;4986752;28;19925;-91
2022/12/09 05:17:06;;;;;;;;;;;-2.90;99.90;;;;;;4963109;28;19933;-91
2022/12/09 05:19:31;;;;;;;;;;;-2.90;99.90;;;;;;4971045;28;19973;-91
2022/12/09 05:21:57;;;;;;;;;;;-2.90;99.90;;;;;;4997416;28;19925;-91
2022/12/09 05:24:22;;;;;;;;;;;-3.00;99.90;;;;;;4993341;28;19937;-91
2022/12/09 05:26:48;;;;;;;;;;;-3.00;99.90;;;;;;4988664;28;20000;-91
2022/12/09 05:29:14;;;;;;;;;;;-3.00;99.90;;;;;;4955329;28;19925;-91
2022/12/09 05:31:40;;;;;;;;;;;-3.00;99.90;;;;;;4990798;28;19929;-91
2022/12/09 05:34:06;;;;;;;;;;;0.00;99.90;;;;;;4989260;28;19949;-90
2022/12/09 05:36:31;;;;;;;;;;;-3.00;99.90;;;;;;4989697;28;19937;-92
2022/12/09 05:38:57;;;;;;;;;;;-3.10;99.90;;;;;;5005740;28;19925;-92
2022/12/09 05:41:23;;;;;;;;;;;-3.10;99.90;;;;;;4988937;28;19972;-91
2022/12/09 05:43:49;;;;;;;;;;;-3.10;99.90;;;;;;4981179;28;19926;-91
2022/12/09 05:46:15;;;;;;;;;;;-3.00;99.90;;;;;;4977383;28;20000;-92
2022/12/09 05:48:44;;;;;;;;;;;-3.00;99.90;;;;;;4972583;28;20871;-92
2022/12/09 05:51:19;;;;;;;;;;;-3.00;99.90;;;;;;4969793;28;19926;-92
2022/12/09 05:53:45;;;;;;;;;;;-3.10;99.90;;;;;;4988009;28;20307;-91
2022/12/09 05:56:13;;;;;;;;;;;-3.00;99.90;;;;;;4994405;28;19930;-90
2022/12/09 05:58:39;;;;;;;;;;;-3.00;99.90;;;;;;5000903;28;19926;-90
2022/12/09 06:01:05;;;;;;;;;;;-3.00;99.90;;;;;;4987851;28;19952;-91
2022/12/09 06:03:31;;;;;;;;;;;-3.00;99.90;;;;;;4992477;28;20025;-92
2022/12/09 06:05:57;;;;;;;;;;;-3.10;99.90;;;;;;4997954;28;19933;-91
2022/12/09 06:08:22;;;;;;;;;;;-3.00;99.90;;;;;;4970221;28;19927;-91
2022/12/09 06:10:48;;;;;;;;;;;-3.00;99.90;;;;;;5001925;28;19932;-92
2022/12/09 06:13:13;;;;;;;;;;;-3.10;99.90;;;;;;4993966;28;19926;-92
2022/12/09 06:15:42;;;;;;;;;;;;;;;;;;4970412;28;20017;-91
2022/12/09 06:18:14;;;;;;;;;;;-3.10;99.90;;;;;;4992256;28;19933;-91
2022/12/09 06:20:40;;;;;;;;;;;-3.10;99.90;;;;;;4973946;28;19926;-92
2022/12/09 06:23:06;;;;;;;;;;;-3.10;99.90;;;;;;4988607;28;20401;-92
2022/12/09 06:25:31;;;;;;;;;;;-2.30;99.90;;;;;;4991081;28;19930;-91
2022/12/09 06:27:57;;;;;;;;;;;-3.20;99.90;;;;;;4976487;28;20270;-91
2022/12/09 06:30:22;;;;;;;;;;;-3.20;99.90;;;;;;4993925;28;20385;-91
2022/12/09 06:32:48;;;;;;;;;;;-3.20;99.90;;;;;;4992835;28;19929;-91
2022/12/09 06:35:14;;;;;;;;;;;-3.20;99.90;;;;;;4982622;28;19936;-91
2022/12/09 06:37:39;;;;;;;;;;;-3.20;99.90;;;;;;4981311;28;19926;-91
2022/12/09 06:40:05;;;;;;;;;;;-3.20;99.90;;;;;;4990752;28;19949;-91
2022/12/09 06:42:31;;;;;;;;;;;-3.20;99.90;;;;;;4976716;28;20347;-91
2022/12/09 06:44:56;;;;;;;;;;;-3.20;99.90;;;;;;4974292;28;20024;-90
2022/12/09 06:47:22;;;;;;;;;;;-3.20;99.90;;;;;;4976080;28;19937;-90
2022/12/09 06:49:48;;;;;;;;;;;-3.20;99.90;;;;;;4986340;28;20392;-89
2022/12/09 06:52:13;;;;;;;;;;;-3.10;99.90;;;;;;4978442;28;20296;-92
2022/12/09 06:54:39;;;;;;;;;;;-3.10;99.90;;;;;;4997122;28;19929;-92
2022/12/09 06:57:04;;;;;;;;;;;-3.20;99.90;;;;;;4997996;28;19989;-91
2022/12/09 06:59:30;;;;;;;;;;;-3.20;99.90;;;;;;4983320;28;19929;-90
2022/12/09 07:01:56;;;;;;;;;;;-3.20;99.90;;;;;;4972780;28;19933;-90
2022/12/09 07:04:21;;;;;;;;;;;-3.20;99.90;;;;;;4969688;28;19944;-90
2022/12/09 07:06:47;;;;;;;;;;;;;;;;;;4977715;28;19985;-91
2022/12/09 07:09:14;;;;;;;;;;;-3.20;99.90;;;;;;4992675;28;20009;-91
2022/12/09 07:11:41;;;;;;;;;;;-3.20;99.90;;;;;;4996990;28;19925;-90
2022/12/09 07:14:07;;;;;;;;;;;-3.20;99.90;;;;;;4995974;28;19937;-91
2022/12/09 07:16:33;;;;;;;;;;;-3.20;99.90;;;;;;4996157;28;19981;-92
2022/12/09 07:18:59;;;;;;;;;;;-3.20;99.90;;;;;;4986572;28;19941;-90
2022/12/09 07:21:25;;;;;;;;;;;-3.20;99.90;;;;;;4997323;28;19925;-90
2022/12/09 07:23:51;;;;;;;;;;;-3.30;99.90;;;;;;4994455;28;19929;-92
2022/12/09 07:26:16;;;;;;;;;;;-3.30;99.90;;;;;;5007574;28;20025;-92
2022/12/09 07:28:42;;;;;;;;;;;-3.30;99.90;;;;;;4980717;28;19940;-93
2022/12/09 07:31:20;;;;;;;;;;;-3.30;99.90;;;;;;4980190;28;20441;-91
2022/12/09 07:33:46;;;;;;;;;;;-3.30;99.90;;;;;;4977307;28;19996;-91
2022/12/09 07:36:12;;;;;;;;;;;-3.30;99.90;;;;;;4974530;28;19930;-91
2022/12/09 07:38:37;;;;;;;;;;;-3.30;99.90;;;;;;4988234;28;20060;-91
2022/12/09 07:41:04;;;;;;;;;;;-3.30;99.90;;;;;;4975926;28;19930;-90
2022/12/09 07:43:31;;;;;;;;;;;-3.30;99.90;;;;;;4978847;28;19925;-89
2022/12/09 07:45:57;;;;;;;;;;;-3.30;99.90;;;;;;4986266;28;20008;-88
2022/12/09 07:48:22;;;;;;;;;;;-3.30;99.90;;;;;;4966836;28;19976;-88
2022/12/09 07:50:48;;;;;;;;;;;-3.30;99.90;;;;;;4982622;28;19949;-88
2022/12/09 07:53:13;;;;;;;;;;;-3.30;99.90;;;;;;4992660;28;19931;-88
2022/12/09 07:55:39;;;;;;;;;;;-3.30;99.90;;;;;;5010322;28;19925;-87
2022/12/09 07:58:05;;;;;;;;;;;-3.30;99.90;;;;;;4970188;28;19932;-88
2022/12/09 08:00:30;;;;;;;;;;;-3.30;99.90;;;;;;4973640;28;19961;-88
2022/12/09 08:02:56;;;;;;;;;;;-3.30;99.90;;;;;;4975400;28;19926;-88
2022/12/09 08:05:21;;;;;;;;;;;-3.30;99.90;;;;;;4990589;28;19925;-88
2022/12/09 08:07:47;;;;;;;;;;;-3.30;99.90;;;;;;4980744;28;19933;-89
2022/12/09 08:10:13;;;;;;;;;;;-3.10;99.90;;;;;;4985391;28;19997;-88
2022/12/09 08:12:38;;;;;;;;;;;-3.10;99.90;;;;;;4984306;28;19940;-88
2022/12/09 08:15:05;;;;;;;;;;;-3.20;99.90;;;;;;4985594;28;19926;-88
2022/12/09 08:17:31;;;;;;;;;;;-3.10;99.90;;;;;;4971142;28;19925;-87
2022/12/09 08:19:57;;;;;;;;;;;-3.10;99.90;;;;;;4993186;28;19929;-88
2022/12/09 08:22:22;;;;;;;;;;;-3.10;99.90;;;;;;5007932;28;19934;-87
2022/12/09 08:24:48;;;;;;;;;;;-0.70;99.90;;;;;;4980176;28;20017;-87
2022/12/09 08:27:13;;;;;;;;;;;-3.00;99.90;;;;;;4994433;28;19932;-88
2022/12/09 08:29:39;;;;;;;;;;;-3.00;99.90;;;;;;4975704;28;19929;-88
2022/12/09 08:32:05;;;;;;;;;;;-3.00;99.90;;;;;;4973351;28;20008;-88
2022/12/09 08:34:31;;;;;;;;;;;-2.90;99.90;;;;;;4974749;28;20353;-87
2022/12/09 08:36:56;;;;;;;;;;;-3.00;99.90;;;;;;4993538;28;19929;-87
2022/12/09 08:39:22;;;;;;;;;;;-2.60;99.90;;;;;;4980440;28;19938;-87
2022/12/09 08:41:47;;;;;;;;;;;-2.80;99.90;;;;;;4975326;28;19926;-88
2022/12/09 08:44:14;;;;;;;;;;;-2.80;99.90;;;;;;4995190;28;19926;-88
2022/12/09 08:46:41;;;;;;;;;;;-1.90;99.90;;;;;;4980933;28;19933;-89
2022/12/09 08:49:07;;;;;;;;;;;-2.40;99.90;;;;;;4966812;28;19926;-87
2022/12/09 08:51:33;;;;;;;;;;;-2.60;99.90;;;;;;4992782;28;19925;-87
2022/12/09 08:53:59;;;;;;;;;;;-2.60;99.90;;;;;;4978746;28;19929;-87
2022/12/09 08:56:25;;;;;;;;;;;-2.50;99.90;;;;;;4974878;28;19948;-88
2022/12/09 08:58:50;;;;;;;;;;;-0.40;99.90;;;;;;4976965;28;19929;-87
2022/12/09 09:01:17;;;;;;;;;;;-2.40;99.90;;;;;;4976731;28;19933;-88
2022/12/09 09:03:43;;;;;;;;;;;-2.20;99.90;;;;;;4970493;28;19926;-87
2022/12/09 09:06:09;;;;;;;;;;;-2.10;99.90;;;;;;4982714;28;19988;-87
2022/12/09 09:08:35;;;;;;;;;;;-1.80;99.90;;;;;;4975102;28;19930;-88
2022/12/09 09:11:00;;;;;;;;;;;-1.90;99.90;;;;;;4974833;28;19934;-88
2022/12/09 09:13:26;;;;;;;;;;;-1.80;99.90;;;;;;4970263;28;19926;-87
2022/12/09 09:15:52;;;;;;;;;;;-1.70;99.90;;;;;;4974666;28;19934;-88
2022/12/09 09:18:17;;;;;;;;;;;-0.60;99.90;;;;;;4977848;28;19926;-88
2022/12/09 09:20:47;;;;;;;;;;;-1.60;99.90;;;;;;4969911;28;19934;-88
2022/12/09 09:23:13;;;;;;;;;;;-0.20;99.90;;;;;;4995036;28;20355;-87
2022/12/09 09:25:42;;;;;;;;;;;-1.50;99.90;;;;;;4991646;28;19930;-87
2022/12/09 09:28:08;;;;;;;;;;;-1.50;99.90;;;;;;4989635;28;19926;-87
2022/12/09 09:30:34;;;;;;;;;;;0.10;99.90;;;;;;4991948;28;19933;-86
2022/12/09 09:33:00;;;;;;;;;;;-1.40;99.90;;;;;;4973592;28;20016;-88
2022/12/09 09:35:26;;;;;;;;;;;-0.50;99.90;;;;;;4962639;28;20532;-87
2022/12/09 09:37:53;;;;;;;;;;;-1.40;99.90;;;;;;4982844;28;19925;-87
2022/12/09 09:40:20;;;;;;;;;;;-1.40;99.90;;;;;;4977316;28;19925;-88
2022/12/09 09:42:47;;;;;;;;;;;-1.40;99.90;;;;;;4989836;28;19973;-88
2022/12/09 09:45:16;;;;;;;;;;;-1.40;99.90;;;;;;4987949;28;19965;-88
2022/12/09 09:48:04;;;;;;;;;;;-1.40;99.90;;;;;;4999996;28;19933;-88
2022/12/09 09:50:40;;;;;;;;;;;-1.40;99.90;;;;;;4984629;28;19926;-87
2022/12/09 09:53:17;;;;;;;;;;;-1.40;99.90;;;;;;4976544;28;19965;-88
2022/12/09 09:55:49;;;;;;;;;;;-1.40;99.90;;;;;;5013774;28;19926;-88
2022/12/09 09:58:16;;;;;;;;;;;-1.40;99.90;;;;;;4993093;28;19926;-89
2022/12/09 10:00:45;;;;;;;;;;;-1.40;99.90;;;;;;4972808;28;20358;-88
2022/12/09 10:03:13;;;;;;;;;;;-1.40;99.90;;;;;;4988606;28;20274;-89
2022/12/09 10:05:45;;;;;;;;;;;-1.10;99.90;;;;;;4969799;28;19929;-88
2022/12/09 10:08:26;;;;;;;;;;;-1.30;99.90;;;;;;4991604;28;20385;-87
2022/12/09 10:11:07;;;;;;;;;;;-1.30;99.90;;;;;;4991567;28;19926;-88
2022/12/09 10:13:43;;;;;;;;;;;-1.20;99.90;;;;;;5010184;28;19932;-89
2022/12/09 10:16:12;;;;;;;;;;;-1.20;99.90;;;;;;4992026;28;19926;-88
2022/12/09 10:18:41;;;;;;;;;;;-1.10;99.90;;;;;;5000402;28;19937;-88
2022/12/09 10:21:13;;;;;;;;;;;-1.10;99.90;;;;;;4989120;28;19926;-89
2022/12/09 10:23:39;;;;;;;;;;;-1.10;99.90;;;;;;4989050;28;19989;-88
2022/12/09 10:26:05;;;;;;;;;;;-1.00;99.90;;;;;;4988829;28;19973;-87
2022/12/09 10:28:33;;;;;;;;;;;-1.00;99.90;;;;;;4995480;28;19938;-88
2022/12/09 10:30:58;;;;;;;;;;;-0.90;99.90;;;;;;4997219;28;19938;-89
2022/12/09 10:33:27;;;;;;;;;;;-0.90;99.90;;;;;;4992939;28;19987;-89
2022/12/09 10:35:53;;;;;;;;;;;-0.90;99.90;;;;;;4992632;28;19965;-88
2022/12/09 10:38:19;;;;;;;;;;;-0.90;99.90;;;;;;4989230;28;19936;-87
2022/12/09 10:40:45;;;;;;;;;;;-0.70;99.90;;;;;;4970069;28;20364;-88
2022/12/09 10:43:38;;;;;;;;;;;-0.80;99.90;;;;;;4992145;28;19936;-88
2022/12/09 10:46:17;;;;;;;;;;;-0.80;99.90;;;;;;4998598;28;19929;-87
2022/12/09 10:48:51;;;;;;;;;;;-0.80;99.90;;;;;;4969000;28;19930;-89
2022/12/09 10:51:18;;;;;;;;;;;-0.70;99.90;;;;;;5001679;28;19956;-89
2022/12/09 10:53:46;;;;;;;;;;;-0.70;99.90;;;;;;4973546;28;19984;-88
2022/12/09 10:56:16;;;;;;;;;;;-0.70;99.90;;;;;;4996515;28;20016;-88
2022/12/09 10:58:41;;;;;;;;;;;-0.70;99.90;;;;;;5011490;28;19926;-88
2022/12/09 11:01:12;;;;;;;;;;;-0.70;99.90;;;;;;4979657;28;19929;-88
2022/12/09 11:03:52;;;;;;;;;;;-0.70;99.90;;;;;;4991612;28;20427;-89
2022/12/09 11:06:23;;;;;;;;;;;-0.60;99.90;;;;;;4975717;28;19925;-88
2022/12/09 11:08:50;;;;;;;;;;;-0.60;99.90;;;;;;4998807;28;19933;-86
2022/12/09 11:11:16;;;;;;;;;;;-0.60;99.90;;;;;;4976396;28;20421;-87
2022/12/09 11:13:43;;;;;;;;;;;-0.30;99.90;;;;;;4976952;28;20722;-87
2022/12/09 11:16:10;;;;;;;;;;;-0.50;99.90;;;;;;5009801;28;19930;-88
2022/12/09 11:18:46;;;;;;;;;;;-0.50;99.90;;;;;;4990823;28;19932;-88
2022/12/09 11:21:32;;;;;;;;;;;-0.50;99.90;;;;;;4996988;28;19989;-87
2022/12/09 11:23:57;;;;;;;;;;;-0.40;99.90;;;;;;4986830;28;19933;-88
2022/12/09 11:26:25;;;;;;;;;;;-0.20;99.90;;;;;;4978307;28;19922;-89
2022/12/09 11:29:23;;;;;;;;;;;-0.40;99.90;;;;;;5004569;28;20013;-88
2022/12/09 11:31:48;;;;;;;;;;;-0.50;99.90;;;;;;4963547;28;19945;-88
2022/12/09 11:34:14;;;;;;;;;;;-0.50;99.90;;;;;;5000228;28;19982;-89
2022/12/09 11:36:51;;;;;;;;;;;-0.40;99.90;;;;;;4995406;28;19937;-88
2022/12/09 11:39:27;;;;;;;;;;;-0.40;99.90;;;;;;4991862;28;19981;-88
2022/12/09 11:42:14;;;;;;;;;;;-0.40;99.90;;;;;;5004752;28;19925;-88
2022/12/09 11:44:48;;;;;;;;;;;-0.40;99.90;;;;;;4993825;28;19997;-88
2022/12/09 11:47:19;;;;;;;;;;;-0.40;99.90;;;;;;5002691;28;19929;-87
2022/12/09 11:50:17;;;;;;;;;;;-0.30;99.90;;;;;;4987225;28;19949;-87
2022/12/09 11:52:43;;;;;;;;;;;-0.30;99.90;;;;;;4939759;28;19936;-88
2022/12/09 11:55:12;;;;;;;;;;;-0.20;99.90;;;;;;4992223;28;19930;-89
2022/12/09 11:57:46;;;;;;;;;;;-0.20;99.90;;;;;;4988713;28;19965;-87
2022/12/09 12:00:16;;;;;;;;;;;-0.20;99.90;;;;;;4998075;28;19953;-87
2022/12/09 12:02:44;;;;;;;;;;;-0.30;99.90;;;;;;4985525;28;19926;-88
2022/12/09 12:05:19;;;;;;;;;;;-0.30;99.90;;;;;;4990073;28;19934;-91
2022/12/09 12:07:47;;;;;;;;;;;-0.40;99.90;;;;;;4994113;28;19936;-89
2022/12/09 12:10:24;;;;;;;;;;;-0.40;99.90;;;;;;4989281;28;19929;-89
2022/12/09 12:12:55;;;;;;;;;;;-0.40;99.90;;;;;;4995193;28;19949;-89
2022/12/09 12:15:39;;;;;;;;;;;-0.30;99.90;;;;;;4990379;28;19997;-87
2022/12/09 12:18:09;;;;;;;;;;;-0.30;99.90;;;;;;4982321;28;19926;-89
2022/12/09 12:20:53;;;;;;;;;;;0.10;99.90;;;;;;4999239;28;19932;-88
2022/12/09 12:23:39;;;;;;;;;;;-0.30;99.90;;;;;;4970690;28;19980;-87
2022/12/09 12:26:09;;;;;;;;;;;-0.30;99.90;;;;;;4977495;28;19952;-87
2022/12/09 12:29:01;;;;;;;;;;;-0.20;99.90;;;;;;4977769;28;19980;-88
2022/12/09 12:31:50;;;;;;;;;;;-0.20;99.90;;;;;;4982704;28;19947;-89
2022/12/09 12:34:35;;;;;;;;;;;-0.20;99.90;;;;;;4979623;28;19957;-87
2022/12/09 12:37:21;;;;;;;;;;;-0.10;99.90;;;;;;5010801;28;19993;-89
2022/12/09 12:39:55;;;;;;;;;;;-0.20;99.90;;;;;;4996235;28;19926;-90
2022/12/09 12:42:24;;;;;;;;;;;-0.10;99.90;;;;;;4983943;28;19930;-89
2022/12/09 12:48:03;;;;;;;;;;;-0.10;99.90;;;;;;4992355;28;19925;-88
2022/12/09 12:50:31;;;;;;;;;;;-0.10;99.90;;;;;;4979748;28;19933;-89
2022/12/09 12:53:11;;;;;;;;;;;-0.10;99.90;;;;;;4990157;28;19926;-88
2022/12/09 12:55:46;;;;;;;;;;;-0.10;99.90;;;;;;4985418;28;19925;-88
2022/12/09 12:58:18;;;;;;;;;;;-0.10;99.90;;;;;;4977331;28;19930;-89
2022/12/09 13:00:59;;;;;;;;;;;-0.10;99.90;;;;;;5000322;28;19925;-88
2022/12/09 13:03:26;;;;;;;;;;;-0.10;99.90;;;;;;4986465;28;19998;-88
2022/12/09 13:05:54;;;;;;;;;;;0.00;99.90;;;;;;4971112;28;19926;-88
2022/12/09 13:08:36;;;;;;;;;;;-0.10;99.90;;;;;;4987683;28;19973;-88
2022/12/09 13:11:06;;;;;;;;;;;-0.10;99.90;;;;;;4990180;28;19930;-89
2022/12/09 13:13:31;;;;;;;;;;;-0.10;99.90;;;;;;4990340;28;20565;-88
2022/12/09 13:15:59;;;;;;;;;;;-0.10;99.90;;;;;;4977168;28;19926;-89
2022/12/09 13:18:34;;;;;;;;;;;0.00;99.90;;;;;;4978569;28;19949;-89
2022/12/09 13:21:00;;;;;;;;;;;0.00;99.90;;;;;;4979864;28;20088;-88
2022/12/09 13:23:41;;;;;;;;;;;0.00;99.90;;;;;;4995637;28;19930;-88
2022/12/09 13:26:25;;;;;;;;;;;0.00;99.90;;;;;;4981390;28;20432;-90
2022/12/09 13:29:10;;;;;;;;;;;0.00;99.90;;;;;;4961689;28;19940;-88
2022/12/09 13:31:38;;;;;;;;;;;0.00;99.90;;;;;;4991297;28;20004;-89
2022/12/09 13:34:22;;;;;;;;;;;0.10;99.90;;;;;;4993987;28;19925;-88
2022/12/09 13:36:48;;;;;;;;;;;-0.10;99.90;;;;;;4975253;28;19925;-89
2022/12/09 13:39:32;;;;;;;;;;;-0.20;99.90;;;;;;4957899;28;19940;-88
2022/12/09 13:44:45;;;;;;;;;;;-0.20;99.90;;;;;;4978083;28;19930;-88
2022/12/09 13:47:14;;;;;;;;;;;0.30;99.90;;;;;;4994277;28;19929;-89
2022/12/09 13:49:40;;;;;;;;;;;-0.20;99.90;;;;;;4979240;28;19930;-88
2022/12/09 13:52:05;;;;;;;;;;;-0.20;99.90;;;;;;4957404;28;19926;-88
2022/12/09 13:54:31;;;;;;;;;;;-0.20;99.90;;;;;;4995929;28;19969;-89
2022/12/09 13:57:15;;;;;;;;;;;-0.20;99.90;;;;;;4976123;28;20428;-88
2022/12/09 13:59:55;;;;;;;;;;;-0.20;99.90;;;;;;4980280;28;19930;-87
2022/12/09 14:02:23;;;;;;;;;;;-0.20;99.90;;;;;;4975577;28;20053;-88
2022/12/09 14:04:58;;;;;;;;;;;-0.20;99.90;;;;;;4979922;28;20301;-87
2022/12/09 14:07:24;;;;;;;;;;;-0.20;99.90;;;;;;4994672;28;19926;-88
2022/12/09 14:09:53;;;;;;;;;;;0.50;99.90;;;;;;4975407;28;19948;-88
2022/12/09 14:12:24;;;;;;;;;;;-0.20;99.90;;;;;;4992203;28;19980;-88
2022/12/09 14:14:54;;;;;;;;;;;-0.20;99.90;;;;;;4971109;28;19973;-88
2022/12/09 14:17:29;;;;;;;;;;;-0.20;99.90;;;;;;4984231;28;19953;-88
2022/12/09 14:20:01;;;;;;;;;;;-0.20;99.90;;;;;;4987018;28;19988;-88
2022/12/09 14:22:29;;;;;;;;;;;-0.30;99.90;;;;;;5001565;28;19926;-88
2022/12/09 14:24:57;;;;;;;;;;;-0.20;99.90;;;;;;5001817;28;19937;-89
2022/12/09 14:27:29;;;;;;;;;;;-0.10;99.90;;;;;;4997026;28;19926;-87
2022/12/09 14:30:15;;;;;;;;;;;-0.30;99.90;;;;;;4976085;28;19926;-88
2022/12/09 14:32:41;;;;;;;;;;;-0.30;99.90;;;;;;4961391;28;20473;-87
2022/12/09 14:35:09;;;;;;;;;;;-0.20;99.90;;;;;;4985053;28;19926;-88